createdAt,value
2023-03-23T00:05:17.610Z,26.2
2023-03-23T00:15:17.486Z,23.9
2023-03-23T00:25:17.644Z,23.7
2023-03-23T00:35:17.978Z,26.5
2023-03-23T00:45:18.374Z,23.6
2023-03-23T00:55:19.184Z,23.6
2023-03-23T01:05:19.265Z,23.4
2023-03-23T01:15:19.675Z,26.3
2023-03-23T01:25:20.211Z,23.7
2023-03-23T01:35:20.783Z,23.8
2023-03-23T01:45:21.905Z,26.2
2023-03-23T01:55:22.083Z,24.2
2023-03-23T02:05:22.581Z,26.1
2023-03-23T02:15:22.309Z,23.9
2023-03-23T02:25:21.855Z,24.2
2023-03-23T02:35:22.811Z,24.3
2023-03-23T02:45:24.211Z,26.4
2023-03-23T02:55:24.799Z,23.9
2023-03-23T03:05:08.110Z,24
2023-03-23T03:15:07.706Z,24.1
2023-03-23T03:25:10.486Z,23.4
2023-03-23T03:35:08.935Z,23.5
2023-03-23T03:45:09.576Z,26.5
2023-03-23T03:55:09.742Z,23.8
2023-03-23T04:05:11.416Z,24.1
2023-03-23T04:15:12.742Z,24.2
2023-03-23T04:25:14.042Z,23.9
2023-03-23T04:35:14.787Z,23.6
2023-03-23T04:45:16.469Z,23.6
2023-03-23T04:55:17.635Z,23.4
2023-03-23T05:05:17.340Z,23.6
2023-03-23T05:15:17.440Z,23.4
2023-03-23T05:25:17.382Z,23.9
2023-03-23T05:35:16.744Z,23.8
2023-03-23T05:45:16.903Z,23.9
2023-03-23T05:55:18.561Z,26.9
2023-03-23T06:05:24.461Z,33.8
2023-03-23T06:15:34.746Z,35.4
2023-03-23T06:25:49.199Z,36.3
2023-03-23T06:36:00.694Z,34.2
2023-03-23T06:46:16.000Z,36.6
2023-03-23T06:56:33.175Z,37.2
2023-03-23T07:06:50.038Z,36.8
2023-03-23T07:17:07.193Z,36.6
2023-03-23T07:27:24.536Z,38.6
2023-03-23T07:37:42.427Z,38.1
2023-03-23T07:48:03.570Z,36.4
2023-03-23T07:58:18.814Z,37.3
2023-03-23T08:08:33.733Z,36.6
2023-03-23T08:18:49.278Z,37.1
2023-03-23T08:29:04.781Z,36.8
2023-03-23T08:39:22.675Z,35
2023-03-23T08:49:43.567Z,38.1
2023-03-23T09:05:17.026Z,38.1
2023-03-23T09:15:41.074Z,39
2023-03-23T09:25:55.865Z,38.3
2023-03-23T09:36:15.443Z,37.8
2023-03-23T09:46:35.100Z,38.4
2023-03-23T09:56:54.057Z,37.5
2023-03-23T10:07:13.054Z,35.9
2023-03-23T10:17:33.077Z,38
2023-03-23T10:27:53.672Z,38.8
2023-03-23T10:38:09.476Z,35.6
2023-03-23T10:48:27.493Z,38
2023-03-23T10:58:47.758Z,39.1
2023-03-23T11:09:06.661Z,39.9
2023-03-23T11:19:23.471Z,35.2
2023-03-23T11:29:42.415Z,39.8
2023-03-23T11:39:59.806Z,37.9
2023-03-23T11:50:15.752Z,37.3
2023-03-23T12:00:29.194Z,34.6
2023-03-23T12:10:40.887Z,31.9
2023-03-23T12:20:43.234Z,30.6
2023-03-23T12:30:47.732Z,29.9
2023-03-23T12:40:53.814Z,29.4
2023-03-23T12:50:56.928Z,28
2023-03-23T13:01:00.766Z,28.3
2023-03-23T13:11:04.287Z,27.9
2023-03-23T13:21:07.558Z,27.9
2023-03-23T13:31:10.859Z,28.1
2023-03-23T13:41:14.166Z,26.6
2023-03-23T13:51:17.339Z,27.6
2023-03-23T14:01:20.585Z,27.4
2023-03-23T14:11:23.835Z,27.7
2023-03-23T14:21:26.850Z,28.3
2023-03-23T14:31:29.997Z,27.6
2023-03-23T14:41:33.164Z,27.4
2023-03-23T14:51:36.239Z,27.5
2023-03-23T15:05:08.227Z,28.5
2023-03-23T15:15:10.550Z,27.3
2023-03-23T15:25:16.761Z,23.3
2023-03-23T15:35:15.747Z,27.5
2023-03-23T15:45:16.710Z,23.8
2023-03-23T15:55:18.965Z,23.4
2023-03-23T16:05:20.315Z,26.3
2023-03-23T16:15:22.565Z,23.6
2023-03-23T16:25:23.504Z,23.3
2023-03-23T16:35:25.507Z,23.8
2023-03-23T16:45:25.850Z,24.6
2023-03-23T16:55:26.402Z,24.1
2023-03-23T17:05:27.004Z,26.6
2023-03-23T17:15:29.222Z,27
2023-03-23T17:25:29.699Z,26.6
2023-03-23T17:35:31.140Z,26.6
2023-03-23T17:45:31.289Z,26.3
2023-03-23T17:55:32.344Z,24.3
2023-03-23T18:05:31.364Z,23.7
2023-03-23T18:15:31.527Z,24.4
2023-03-23T18:25:31.483Z,24.4
2023-03-23T18:35:31.686Z,26.4
2023-03-23T18:45:31.319Z,24.2
2023-03-23T18:55:31.448Z,24
2023-03-23T19:05:32.619Z,26.1
2023-03-23T19:15:32.956Z,24.4
2023-03-23T19:25:33.328Z,26.6
2023-03-23T19:35:33.636Z,24.4
2023-03-23T19:45:33.992Z,24.1
2023-03-23T19:55:34.055Z,24.6
2023-03-23T20:05:33.839Z,24.6
2023-03-23T20:15:34.255Z,24.3
2023-03-23T20:25:34.851Z,24.4
2023-03-23T20:35:35.035Z,24.1
2023-03-23T20:45:34.834Z,24
2023-03-23T20:55:34.837Z,24.4
2023-03-23T21:05:07.317Z,24.9
2023-03-23T21:15:08.735Z,26.4
2023-03-23T21:25:09.634Z,24.4
2023-03-23T21:35:09.850Z,24.7
2023-03-23T21:45:09.970Z,24.7
2023-03-23T21:55:10.551Z,24.3
2023-03-23T22:05:11.155Z,24.4
2023-03-23T22:15:13.982Z,24.4
2023-03-23T22:25:15.426Z,24.5
2023-03-23T22:35:17.590Z,24.6
2023-03-23T22:45:19.387Z,26.2
2023-03-23T22:55:21.204Z,24.9
2023-03-23T23:05:22.028Z,24.7
2023-03-23T23:15:22.412Z,24.9
2023-03-23T23:25:22.975Z,24.7
2023-03-23T23:35:23.858Z,24.7
2023-03-23T23:45:23.719Z,24.6
2023-03-23T23:55:24.560Z,24.1
